Time;durP1;ratioP1;P1;durP2;ratioP2;P2;SDS_P1;SDS_P2;PMS_P1;PMS_P2;Temp;Humidity;BMP_temperature;BMP_pressure;BME280_temperature;BME280_humidity;BME280_pressure;Samples;Min_cycle;Max_cycle;Signal;HPM_P1;HPM_P2
2021/08/20 00:02:13;;;;;;;10.30;9.40;;;16.00;99.90;;;;;;4980271;28;20577;-56
2021/08/20 00:04:43;;;;;;;10.20;9.20;;;15.90;99.90;;;;;;4980204;28;20466;-57
2021/08/20 00:07:10;;;;;;;10.00;9.10;;;15.80;99.90;;;;;;4980582;28;20469;-59
2021/08/20 00:09:39;;;;;;;10.53;9.43;;;15.80;99.90;;;;;;4980955;28;20629;-58
2021/08/20 00:12:08;;;;;;;10.37;9.30;;;15.70;99.90;;;;;;4981037;28;20501;-60
2021/08/20 00:14:35;;;;;;;9.97;9.13;;;15.70;99.90;;;;;;4980919;28;20462;-60
2021/08/20 00:17:02;;;;;;;11.40;8.70;;;15.70;99.90;;;;;;4979563;28;20906;-60
2021/08/20 00:19:31;;;;;;;10.23;9.07;;;15.70;99.90;;;;;;4980250;28;20541;-60
2021/08/20 00:21:59;;;;;;;9.63;8.63;;;15.60;99.90;;;;;;4980636;28;20560;-60
2021/08/20 00:24:29;;;;;;;10.07;9.13;;;15.60;99.90;;;;;;4980469;28;20508;-60
2021/08/20 00:26:59;;;;;;;9.63;8.83;;;15.50;99.90;;;;;;4979799;28;20508;-59
2021/08/20 00:29:26;;;;;;;10.13;9.17;;;15.50;99.90;;;;;;4980367;28;20497;-60
2021/08/20 00:31:53;;;;;;;8.90;8.00;;;15.50;99.90;;;;;;4980086;28;20548;-58
2021/08/20 00:34:20;;;;;;;10.67;9.00;;;15.50;99.90;;;;;;4980187;28;20525;-60
2021/08/20 00:36:48;;;;;;;9.73;8.73;;;15.50;99.90;;;;;;4979883;28;20465;-60
2021/08/20 00:39:17;;;;;;;9.30;8.40;;;15.40;99.90;;;;;;4980103;28;20432;-59
2021/08/20 00:41:45;;;;;;;9.43;8.63;;;15.30;99.90;;;;;;4980116;28;20529;-60
2021/08/20 00:44:12;;;;;;;10.60;9.60;;;15.30;99.90;;;;;;4979316;28;20494;-60
2021/08/20 00:46:40;;;;;;;10.40;9.20;;;15.30;99.90;;;;;;4979449;28;20504;-60
2021/08/20 00:49:07;;;;;;;9.80;8.30;;;15.30;99.90;;;;;;4979808;28;20529;-58
2021/08/20 00:51:37;;;;;;;10.87;9.77;;;15.20;99.90;;;;;;4979869;28;20810;-60
2021/08/20 00:54:09;;;;;;;10.70;9.70;;;15.30;99.90;;;;;;4980105;28;20512;-58
2021/08/20 00:56:41;;;;;;;10.80;9.80;;;15.20;99.90;;;;;;4979558;28;20469;-57
2021/08/20 00:59:10;;;;;;;10.67;9.50;;;15.20;99.90;;;;;;4979633;28;20919;-59
2021/08/20 01:01:37;;;;;;;10.70;9.60;;;15.20;99.90;;;;;;4979272;28;20975;-60
2021/08/20 01:04:07;;;;;;;12.00;11.00;;;15.20;99.90;;;;;;4979905;28;20485;-60
2021/08/20 01:06:37;;;;;;;11.37;10.23;;;15.20;99.90;;;;;;4978432;28;20466;-60
2021/08/20 01:09:04;;;;;;;10.87;9.87;;;15.30;99.90;;;;;;4978973;28;20494;-60
2021/08/20 01:11:31;;;;;;;11.13;10.03;;;15.30;99.90;;;;;;4979177;28;20537;-60
2021/08/20 01:14:00;;;;;;;11.40;10.30;;;15.30;99.90;;;;;;4978843;28;20509;-60
2021/08/20 01:16:27;;;;;;;10.90;9.60;;;15.40;99.90;;;;;;4979414;28;20887;-60
2021/08/20 01:18:54;;;;;;;11.00;9.90;;;15.30;99.90;;;;;;4979428;28;20465;-60
2021/08/20 01:21:23;;;;;;;10.57;9.47;;;15.40;99.90;;;;;;4978965;28;20440;-60
2021/08/20 01:23:52;;;;;;;10.47;9.40;;;15.40;99.90;;;;;;4979565;28;20520;-60
2021/08/20 01:26:21;;;;;;;8.30;7.60;;;15.40;99.90;;;;;;4979173;28;20741;-58
2021/08/20 01:28:48;;;;;;;10.53;9.63;;;15.40;99.90;;;;;;4978338;28;20502;-60
2021/08/20 01:31:17;;;;;;;9.43;8.47;;;15.40;99.90;;;;;;4978829;28;20502;-58
2021/08/20 01:33:44;;;;;;;10.47;9.47;;;15.40;99.90;;;;;;4979041;28;20501;-59
2021/08/20 01:36:11;;;;;;;9.40;8.50;;;15.50;99.90;;;;;;4979044;28;20545;-60
2021/08/20 01:38:49;;;;;;;10.73;9.67;;;15.50;99.90;;;;;;4978775;28;20440;-59
2021/08/20 01:41:17;;;;;;;10.27;9.27;;;15.50;99.90;;;;;;4978733;28;20841;-57
2021/08/20 01:43:46;;;;;;;9.70;8.80;;;15.50;99.90;;;;;;4979214;28;20897;-59
2021/08/20 01:46:13;;;;;;;10.30;9.40;;;15.50;99.90;;;;;;4979000;28;20605;-59
2021/08/20 01:48:45;;;;;;;9.43;8.53;;;15.50;99.90;;;;;;4978579;28;20937;-60
2021/08/20 01:51:13;;;;;;;9.47;8.57;;;15.50;99.90;;;;;;4979020;28;20739;-59
2021/08/20 01:53:41;;;;;;;10.30;9.37;;;15.50;32.70;;;;;;4978726;28;20476;-59
2021/08/20 01:56:14;;;;;;;11.37;10.27;;;15.50;37.00;;;;;;4978914;28;20906;-59
2021/08/20 01:58:42;;;;;;;10.90;9.90;;;15.60;1.00;;;;;;4978196;28;20789;-60
2021/08/20 02:01:10;;;;;;;11.37;10.10;;;15.50;1.00;;;;;;4978597;28;20824;-60
2021/08/20 02:03:37;;;;;;;10.97;9.87;;;15.60;1.00;;;;;;4978611;28;20501;-59
2021/08/20 02:06:06;;;;;;;12.50;9.77;;;15.50;1.00;;;;;;4977852;28;20818;-60
2021/08/20 02:08:36;;;;;;;11.27;10.17;;;15.50;1.00;;;;;;4978752;28;20823;-60
2021/08/20 02:11:04;;;;;;;11.10;10.10;;;15.60;1.00;;;;;;4978184;28;20577;-60
2021/08/20 02:13:31;;;;;;;12.90;10.13;;;15.50;1.00;;;;;;4978373;28;20568;-60
2021/08/20 02:15:58;;;;;;;15.30;10.53;;;15.50;1.00;;;;;;4978279;28;20560;-58
2021/08/20 02:18:30;;;;;;;12.47;11.37;;;15.50;1.00;;;;;;4978515;28;20538;-60
2021/08/20 02:20:57;;;;;;;12.00;10.90;;;15.40;1.00;;;;;;4978414;28;20517;-60
2021/08/20 02:23:24;;;;;;;14.63;11.10;;;15.40;1.00;;;;;;4978368;28;20556;-60
2021/08/20 02:25:51;;;;;;;12.50;11.30;;;15.40;1.00;;;;;;4978765;28;20505;-60
2021/08/20 02:28:17;;;;;;;13.30;12.10;;;15.40;1.00;;;;;;4978409;28;20485;-57
2021/08/20 02:30:44;;;;;;;15.93;11.47;;;15.40;1.00;;;;;;4978341;28;20546;-59
2021/08/20 02:33:11;;;;;;;12.83;11.53;;;15.40;1.00;;;;;;4978398;28;20556;-59
2021/08/20 02:35:40;;;;;;;12.63;11.40;;;15.40;1.00;;;;;;4978449;28;20508;-58
2021/08/20 02:38:06;;;;;;;13.67;12.30;;;15.40;1.00;;;;;;4978413;28;20501;-60
2021/08/20 02:40:33;;;;;;;13.50;12.30;;;15.40;1.00;;;;;;4978680;28;20854;-60
2021/08/20 02:43:00;;;;;;;12.60;11.30;;;15.30;1.00;;;;;;4982114;28;20476;-59
2021/08/20 02:45:28;;;;;;;14.43;13.10;;;15.40;1.00;;;;;;4981473;28;20508;-60
2021/08/20 02:47:54;;;;;;;14.30;12.87;;;15.40;1.00;;;;;;4982792;28;20525;-58
2021/08/20 02:50:27;;;;;;;14.03;12.73;;;15.40;1.00;;;;;;4982335;28;20532;-60
2021/08/20 02:52:56;;;;;;;16.00;14.13;;;15.30;1.00;;;;;;4981724;28;20465;-59
2021/08/20 02:55:22;;;;;;;14.03;12.63;;;15.30;1.00;;;;;;4982024;28;20501;-60
2021/08/20 02:57:49;;;;;;;15.53;13.40;;;15.30;1.00;;;;;;4982135;28;20560;-59
2021/08/20 03:00:17;;;;;;;14.10;12.60;;;15.30;1.00;;;;;;4982455;28;20436;-58
2021/08/20 03:02:44;;;;;;;15.50;14.10;;;15.40;1.00;;;;;;4982179;28;20489;-59
2021/08/20 03:05:11;;;;;;;15.10;13.57;;;15.30;1.00;;;;;;4981380;28;20512;-59
2021/08/20 03:07:38;;;;;;;14.77;13.43;;;15.30;1.00;;;;;;4981603;28;20510;-58
2021/08/20 03:10:07;;;;;;;13.67;12.37;;;15.20;1.00;;;;;;4981902;28;20498;-59
2021/08/20 03:12:34;;;;;;;16.27;14.67;;;15.20;1.00;;;;;;4982164;28;20565;-58
2021/08/20 03:15:02;;;;;;;19.17;16.13;;;15.20;1.00;;;;;;4981381;28;20512;-58
2021/08/20 03:17:29;;;;;;;16.10;14.60;;;15.30;1.00;;;;;;4981444;28;20532;-58
2021/08/20 03:19:56;;;;;;;16.83;15.03;;;15.20;1.00;;;;;;4981727;28;20552;-60
2021/08/20 03:22:23;;;;;;;18.60;16.60;;;15.30;1.00;;;;;;4981367;28;20470;-58
2021/08/20 03:24:49;;;;;;;17.53;15.77;;;15.20;1.00;;;;;;4981255;28;20564;-59
2021/08/20 03:27:18;;;;;;;19.30;17.17;;;15.20;1.00;;;;;;4981093;28;20465;-60
2021/08/20 03:29:45;;;;;;;20.13;18.07;;;15.20;10.80;;;;;;4981660;28;20592;-59
2021/08/20 03:32:12;;;;;;;21.07;18.80;;;15.20;4.60;;;;;;4981812;28;20857;-59
2021/08/20 03:34:39;;;;;;;21.87;18.33;;;15.20;1.00;;;;;;4981180;28;20800;-58
2021/08/20 03:37:06;;;;;;;20.30;18.20;;;15.20;1.00;;;;;;4980948;28;20472;-60
2021/08/20 03:39:33;;;;;;;19.73;17.73;;;15.20;8.30;;;;;;4981346;28;20539;-60
2021/08/20 03:42:03;;;;;;;18.47;16.53;;;15.20;24.70;;;;;;4981389;28;20473;-58
2021/08/20 03:44:31;;;;;;;20.47;18.33;;;15.20;82.80;;;;;;4981131;28;20863;-60
2021/08/20 03:46:58;;;;;;;19.47;17.60;;;15.20;26.20;;;;;;4981241;28;20469;-60
2021/08/20 03:49:25;;;;;;;23.77;20.73;;;15.20;21.50;;;;;;4980742;28;20564;-59
2021/08/20 03:51:52;;;;;;;24.10;19.40;;;15.20;1.00;;;;;;4980830;28;20507;-58
2021/08/20 03:54:19;;;;;;;23.50;20.23;;;15.20;9.60;;;;;;4981359;28;20501;-57
2021/08/20 03:56:48;;;;;;;27.90;24.87;;;15.20;9.20;;;;;;4980807;28;20461;-60
2021/08/20 03:59:15;;;;;;;26.60;22.87;;;15.20;1.30;;;;;;4980871;28;20486;-59
2021/08/20 04:01:44;;;;;;;26.10;23.07;;;15.20;1.00;;;;;;4980704;28;20552;-59
2021/08/20 04:04:13;;;;;;;25.30;22.63;;;15.20;46.90;;;;;;4980829;28;20470;-60
2021/08/20 04:06:40;;;;;;;24.47;20.93;;;15.20;42.80;;;;;;4979989;28;20508;-58
2021/08/20 04:09:08;;;;;;;24.50;22.13;;;15.20;23.80;;;;;;4980528;28;20548;-60
2021/08/20 04:11:35;;;;;;;23.63;21.20;;;15.20;23.90;;;;;;4980551;28;20950;-60
2021/08/20 04:14:03;;;;;;;22.27;19.17;;;15.10;28.40;;;;;;4980324;28;20470;-60
2021/08/20 04:16:30;;;;;;;22.70;20.30;;;15.10;68.30;;;;;;4980998;28;20743;-59
2021/08/20 04:18:58;;;;;;;24.23;21.70;;;15.10;77.00;;;;;;4980753;28;20472;-60
2021/08/20 04:21:25;;;;;;;24.90;22.27;;;15.10;25.30;;;;;;4980322;28;20552;-58
2021/08/20 04:23:52;;;;;;;25.50;22.93;;;15.10;91.10;;;;;;4980405;28;20469;-60
2021/08/20 04:26:19;;;;;;;26.63;22.80;;;15.00;99.90;;;;;;4980519;28;20474;-60
2021/08/20 04:28:49;;;;;;;25.80;23.23;;;15.00;99.90;;;;;;4980019;28;20950;-60
2021/08/20 04:31:16;;;;;;;25.20;22.80;;;15.00;99.90;;;;;;4980156;28;20596;-58
2021/08/20 04:33:43;;;;;;;28.60;23.60;;;15.00;99.90;;;;;;4980482;28;20551;-59
2021/08/20 04:36:12;;;;;;;25.87;23.20;;;15.00;99.90;;;;;;4980567;28;20508;-60
2021/08/20 04:38:40;;;;;;;26.90;24.00;;;14.90;99.90;;;;;;4983502;28;20512;-60
2021/08/20 04:41:08;;;;;;;28.37;25.07;;;14.90;99.90;;;;;;4998277;28;20520;-60
2021/08/20 04:43:36;;;;;;;27.37;24.63;;;14.90;99.90;;;;;;4998941;28;20544;-60
2021/08/20 04:46:03;;;;;;;30.47;25.77;;;14.90;99.90;;;;;;4980434;28;20958;-59
2021/08/20 04:48:30;;;;;;;29.93;23.30;;;14.80;99.90;;;;;;4980432;28;20470;-60
2021/08/20 04:50:58;;;;;;;30.03;24.50;;;14.90;99.90;;;;;;4979525;28;20533;-60
2021/08/20 04:53:30;;;;;;;26.83;24.03;;;14.90;99.90;;;;;;4979824;28;20805;-60
2021/08/20 04:55:57;;;;;;;29.67;25.90;;;14.90;82.70;;;;;;4980151;28;20513;-60
2021/08/20 04:58:24;;;;;;;28.70;25.57;;;14.90;1.00;;;;;;4979991;28;20478;-60
2021/08/20 05:00:54;;;;;;;26.67;23.87;;;14.90;1.00;;;;;;4979875;28;20490;-60
2021/08/20 05:03:22;;;;;;;26.33;23.40;;;14.90;1.00;;;;;;4979299;28;20535;-60
2021/08/20 05:05:49;;;;;;;26.47;21.50;;;14.80;1.00;;;;;;4980810;28;20525;-60
2021/08/20 05:08:16;;;;;;;24.43;21.80;;;14.90;1.00;;;;;;4998540;28;20527;-58
2021/08/20 05:10:46;;;;;;;28.63;20.67;;;14.90;1.00;;;;;;4998157;28;20501;-60
2021/08/20 05:13:13;;;;;;;21.63;19.33;;;15.00;1.00;;;;;;4997502;28;20507;-60
2021/08/20 05:15:40;;;;;;;24.03;21.57;;;15.00;99.90;;;;;;4992497;28;20923;-58
2021/08/20 05:18:07;;;;;;;22.97;20.70;;;15.10;99.90;;;;;;4988101;28;20834;-59
2021/08/20 05:20:34;;;;;;;25.77;21.40;;;15.10;99.90;;;;;;4988839;28;20557;-60
2021/08/20 05:23:01;;;;;;;22.80;20.40;;;15.10;92.30;;;;;;4986597;28;20533;-60
2021/08/20 05:25:33;;;;;;;22.37;20.17;;;15.20;1.00;;;;;;4987694;28;20497;-59
2021/08/20 05:28:05;;;;;;;22.60;20.20;;;15.20;99.90;;;;;;4989416;28;20501;-58
2021/08/20 05:30:33;;;;;;;22.10;19.80;;;15.20;99.90;;;;;;4994445;28;20497;-60
2021/08/20 05:33:00;;;;;;;21.73;19.63;;;15.20;99.90;;;;;;4994263;28;20819;-57
2021/08/20 05:35:34;;;;;;;23.43;18.90;;;15.20;43.30;;;;;;4997752;28;20465;-61
2021/08/20 05:38:01;;;;;;;21.53;19.37;;;15.20;45.40;;;;;;4996397;28;20460;-61
2021/08/20 05:40:28;;;;;;;19.70;17.57;;;15.30;1.00;;;;;;4997642;28;20556;-60
2021/08/20 05:42:55;;;;;;;23.27;17.77;;;15.30;1.00;;;;;;4997175;28;20571;-61
2021/08/20 05:45:24;;;;;;;20.73;18.63;;;15.30;1.00;;;;;;4996678;28;20461;-61
2021/08/20 05:47:51;;;;;;;18.23;16.53;;;15.40;1.00;;;;;;4996573;28;20469;-61
2021/08/20 05:50:18;;;;;;;17.27;15.47;;;15.50;99.90;;;;;;4984500;28;20872;-61
2021/08/20 05:52:44;;;;;;;17.50;15.80;;;15.60;25.50;;;;;;4977812;28;20829;-61
2021/08/20 05:55:12;;;;;;;21.90;16.50;;;15.70;99.90;;;;;;4978206;28;20950;-61
2021/08/20 05:57:40;;;;;;;16.33;14.63;;;15.70;99.90;;;;;;4978765;28;20494;-61
2021/08/20 06:00:08;;;;;;;18.23;16.37;;;15.90;97.30;;;;;;4978535;28;20474;-61
2021/08/20 06:02:47;;;;;;;18.40;16.50;;;16.00;48.80;;;;;;4983795;28;20953;-61
2021/08/20 06:05:14;;;;;;;17.53;15.77;;;16.10;1.00;;;;;;4986130;28;20496;-61
2021/08/20 06:07:41;;;;;;;21.43;16.43;;;16.00;99.90;;;;;;4985621;28;20754;-60
2021/08/20 06:10:09;;;;;;;17.33;15.53;;;16.00;1.00;;;;;;4987530;28;20552;-61
2021/08/20 06:12:36;;;;;;;17.33;15.50;;;16.00;1.00;;;;;;4982756;28;20466;-61
2021/08/20 06:15:04;;;;;;;18.83;16.83;;;16.20;1.00;;;;;;4977810;28;20469;-61
2021/08/20 06:17:31;;;;;;;18.23;15.27;;;16.30;1.00;;;;;;4978501;28;20867;-60
2021/08/20 06:19:59;;;;;;;16.37;14.63;;;16.40;99.90;;;;;;4983256;28;20541;-61
2021/08/20 06:22:26;;;;;;;19.13;17.13;;;16.40;1.00;;;;;;4978607;28;20461;-61
2021/08/20 06:24:53;;;;;;;20.47;18.03;;;16.30;1.00;;;;;;4978623;28;20560;-61
2021/08/20 06:27:20;;;;;;;21.77;19.40;;;16.10;99.90;;;;;;4978519;28;20513;-61
2021/08/20 06:29:47;;;;;;;21.70;18.33;;;16.10;1.00;;;;;;4978457;28;20501;-61
2021/08/20 06:32:15;;;;;;;23.30;18.30;;;15.90;1.00;;;;;;4977971;28;20561;-61
2021/08/20 06:34:42;;;;;;;25.67;20.03;;;15.90;1.00;;;;;;4978279;28;20508;-60
2021/08/20 06:37:10;;;;;;;24.97;19.70;;;15.90;1.00;;;;;;4978316;28;20878;-60
2021/08/20 06:39:37;;;;;;;23.30;19.20;;;16.00;1.00;;;;;;4978531;28;20500;-60
2021/08/20 06:42:06;;;;;;;24.10;19.17;;;16.00;99.90;;;;;;4978371;28;20461;-61
2021/08/20 06:44:33;;;;;;;26.33;20.07;;;16.00;99.90;;;;;;4978172;28;20853;-61
2021/08/20 06:47:06;;;;;;;21.90;18.83;;;16.00;99.90;;;;;;4977886;28;20465;-59
2021/08/20 06:49:33;;;;;;;28.20;21.20;;;16.10;99.90;;;;;;4978277;28;20504;-60
2021/08/20 06:52:00;;;;;;;28.50;21.20;;;16.10;1.00;;;;;;4978833;28;20584;-60
2021/08/20 06:54:28;;;;;;;26.43;21.73;;;16.10;99.90;;;;;;5005730;28;20489;-61
2021/08/20 06:56:55;;;;;;;27.20;20.73;;;16.10;10.50;;;;;;4978008;28;20512;-60
2021/08/20 06:59:25;;;;;;;27.17;20.60;;;16.20;99.90;;;;;;4997006;28;20854;-61
2021/08/20 07:01:51;;;;;;;29.40;20.37;;;16.10;99.90;;;;;;4996441;28;20907;-61
2021/08/20 07:04:18;;;;;;;24.10;20.30;;;16.10;99.90;;;;;;4997361;28;20893;-61
2021/08/20 07:06:45;;;;;;;24.67;20.10;;;16.30;1.00;;;;;;4996162;28;20527;-60
2021/08/20 07:09:12;;;;;;;26.67;19.20;;;16.50;99.90;;;;;;4997151;28;20469;-61
2021/08/20 07:11:43;;;;;;;29.53;19.30;;;16.60;1.00;;;;;;4997201;28;20796;-61
2021/08/20 07:14:10;;;;;;;24.40;19.17;;;16.70;99.90;;;;;;4997464;28;20468;-61
2021/08/20 07:16:37;;;;;;;23.67;19.07;;;16.90;76.90;;;;;;4997247;28;20500;-61
2021/08/20 07:19:03;;;;;;;26.10;19.60;;;17.00;99.90;;;;;;4997407;28;20493;-60
2021/08/20 07:21:30;;;;;;;24.27;19.97;;;17.00;1.00;;;;;;4996729;28;20500;-60
2021/08/20 07:23:57;;;;;;;22.87;19.37;;;17.10;1.00;;;;;;4997138;28;20497;-60
2021/08/20 07:26:25;;;;;;;24.97;19.80;;;17.10;99.90;;;;;;4997706;28;20465;-61
2021/08/20 07:28:54;;;;;;;24.10;20.37;;;17.20;40.90;;;;;;5000738;28;20504;-61
2021/08/20 07:31:20;;;;;;;24.20;20.17;;;17.40;1.00;;;;;;4999567;28;20595;-61
2021/08/20 07:33:47;;;;;;;24.40;20.50;;;17.50;99.90;;;;;;5000909;28;20870;-61
2021/08/20 07:36:17;;;;;;;25.50;19.77;;;17.60;92.00;;;;;;4998827;28;20559;-61
2021/08/20 07:38:44;;;;;;;22.87;20.10;;;17.90;6.00;;;;;;5000495;28;20507;-61
2021/08/20 07:41:19;;;;;;;22.83;20.40;;;18.00;1.00;;;;;;5000200;28;20868;-61
2021/08/20 07:43:46;;;;;;;21.60;19.40;;;18.10;99.90;;;;;;5000494;28;20464;-59
2021/08/20 07:46:17;;;;;;;23.67;19.50;;;18.20;99.90;;;;;;5000653;28;20464;-59
2021/08/20 07:48:46;;;;;;;23.60;18.93;;;18.20;99.90;;;;;;5000241;28;20532;-61
2021/08/20 07:51:13;;;;;;;23.13;20.77;;;18.10;99.90;;;;;;4994124;28;20507;-61
2021/08/20 07:53:43;;;;;;;21.47;19.20;;;18.00;99.90;;;;;;5000702;28;20503;-58
2021/08/20 07:56:13;;;;;;;20.53;18.33;;;17.90;99.90;;;;;;5000392;28;20821;-60
2021/08/20 07:58:40;;;;;;;20.60;18.40;;;17.90;99.90;;;;;;4999837;28;20496;-61
2021/08/20 08:01:10;;;;;;;21.30;19.13;;;17.90;99.90;;;;;;4999772;28;20489;-59
2021/08/20 08:03:41;;;;;;;24.87;19.67;;;17.90;99.90;;;;;;4998824;28;20469;-61
2021/08/20 08:06:12;;;;;;;22.07;19.77;;;17.90;99.90;;;;;;4991795;28;20508;-61
2021/08/20 08:08:39;;;;;;;21.00;19.03;;;17.90;99.90;;;;;;4999603;28;20469;-61
2021/08/20 08:11:05;;;;;;;21.07;18.90;;;18.00;99.90;;;;;;4984232;28;20529;-61
2021/08/20 08:13:32;;;;;;;22.10;19.60;;;18.00;99.90;;;;;;4996369;28;20469;-60
2021/08/20 08:15:59;;;;;;;22.70;20.33;;;18.10;99.90;;;;;;5000188;28;20532;-60
2021/08/20 08:18:26;;;;;;;22.30;19.90;;;18.30;99.90;;;;;;5000246;28;20524;-60
2021/08/20 08:20:55;;;;;;;22.57;20.27;;;18.40;99.90;;;;;;4999672;28;20742;-60
2021/08/20 08:23:22;;;;;;;21.30;19.10;;;18.70;26.50;;;;;;4999798;28;20851;-60
2021/08/20 08:25:49;;;;;;;21.33;18.50;;;18.90;1.00;;;;;;5000073;28;20489;-59
2021/08/20 08:28:16;;;;;;;19.90;17.77;;;19.10;1.00;;;;;;5000073;28;20465;-60
2021/08/20 08:30:43;;;;;;;20.77;18.67;;;19.10;1.00;;;;;;4995000;28;20816;-59
2021/08/20 08:33:11;;;;;;;19.40;17.27;;;19.60;1.00;;;;;;4996098;28;20583;-60
2021/08/20 08:35:38;;;;;;;19.00;17.10;;;19.90;1.00;;;;;;4999491;28;20520;-59
2021/08/20 08:38:08;;;;;;;18.57;16.57;;;20.20;1.00;;;;;;4998792;28;20492;-58
2021/08/20 08:40:37;;;;;;;18.60;16.90;;;20.40;1.00;;;;;;4999292;28;20500;-60
2021/08/20 08:43:05;;;;;;;17.83;15.57;;;20.80;1.00;;;;;;4999359;28;20497;-60
2021/08/20 08:45:31;;;;;;;18.00;16.30;;;20.80;1.00;;;;;;4998808;28;20589;-60
2021/08/20 08:48:03;;;;;;;20.30;17.47;;;21.30;1.00;;;;;;4999050;28;20894;-61
2021/08/20 08:50:30;;;;;;;17.23;15.30;;;21.70;1.00;;;;;;4992306;28;20552;-61
2021/08/20 08:52:59;;;;;;;17.47;15.87;;;22.60;1.00;;;;;;4995704;28;20547;-61
2021/08/20 08:55:27;;;;;;;18.90;16.00;;;22.50;1.00;;;;;;4989531;28;20437;-61
2021/08/20 08:57:57;;;;;;;16.37;14.53;;;22.50;1.00;;;;;;4999339;28;20461;-61
2021/08/20 09:00:31;;;;;;;16.63;15.10;;;22.00;1.00;;;;;;4999331;28;20492;-61
2021/08/20 09:03:01;;;;;;;16.83;15.23;;;21.90;1.00;;;;;;4999045;28;20544;-60
2021/08/20 09:05:42;;;;;;;16.33;14.87;;;21.80;1.00;;;;;;4998822;28;20496;-60
2021/08/20 09:08:13;;;;;;;16.90;15.03;;;21.60;1.00;;;;;;4999233;28;20457;-60
2021/08/20 09:10:50;;;;;;;16.17;14.63;;;21.50;1.00;;;;;;4992203;28;20465;-60
2021/08/20 09:50:14;;;;;;;12.20;11.10;;;20.90;1.00;;;;;;5122896;23;20531;-59
2021/08/20 09:52:41;;;;;;;12.27;11.20;;;22.20;1.00;;;;;;4998295;28;20504;-60
2021/08/20 09:55:12;;;;;;;11.20;10.30;;;23.20;1.00;;;;;;4990996;28;20472;-61
2021/08/20 09:57:42;;;;;;;10.87;9.97;;;23.80;1.00;;;;;;4994362;28;20519;-61
2021/08/20 10:00:10;;;;;;;12.50;11.37;;;24.20;1.00;;;;;;4997692;28;20535;-59
2021/08/20 10:02:41;;;;;;;9.83;9.03;;;23.80;1.00;;;;;;4997702;28;20817;-57
2021/08/20 10:05:09;;;;;;;7.50;6.90;;;23.10;1.00;;;;;;4997947;28;20956;-58
2021/08/20 10:07:40;;;;;;;8.43;7.73;;;22.80;1.00;;;;;;4998165;28;20508;-58
2021/08/20 10:10:11;;;;;;;9.23;8.43;;;22.60;1.00;;;;;;4998052;28;20527;-57
2021/08/20 10:12:44;;;;;;;9.70;8.90;;;22.60;1.00;;;;;;4998062;28;20588;-55
2021/08/20 10:15:11;;;;;;;9.20;8.40;;;22.40;1.00;;;;;;4993717;28;20508;-57
2021/08/20 10:17:39;;;;;;;10.27;9.37;;;21.90;1.00;;;;;;4997876;28;20539;-58
2021/08/20 10:20:07;;;;;;;10.17;9.27;;;21.80;1.00;;;;;;4996725;28;20469;-56
2021/08/20 10:22:37;;;;;;;9.73;8.93;;;21.80;1.00;;;;;;4996950;28;20488;-57
2021/08/20 10:25:08;;;;;;;10.70;8.23;;;21.80;1.00;;;;;;4996815;28;20767;-56
2021/08/20 10:27:37;;;;;;;8.50;7.70;;;21.60;1.00;;;;;;4996586;28;20516;-57
2021/08/20 10:30:07;;;;;;;8.13;7.33;;;21.50;1.00;;;;;;4996672;28;20492;-53
2021/08/20 10:32:34;;;;;;;7.60;6.93;;;21.50;1.00;;;;;;4997056;28;20493;-57
2021/08/20 10:35:01;;;;;;;8.53;7.83;;;21.40;1.00;;;;;;4996886;28;20560;-55
2021/08/20 10:37:30;;;;;;;9.60;8.17;;;21.20;1.00;;;;;;4997124;28;20523;-54
2021/08/20 10:39:59;;;;;;;9.07;8.17;;;21.00;1.00;;;;;;4997814;28;20766;-54
2021/08/20 10:42:40;;;;;;;11.10;9.97;;;20.50;1.00;;;;;;4997901;28;20515;-57
2021/08/20 10:45:10;;;;;;;13.07;11.80;;;20.40;1.00;;;;;;4996856;28;20469;-57
2021/08/20 10:47:46;;;;;;;15.70;14.40;;;20.10;1.00;;;;;;4997649;28;20469;-53
2021/08/20 11:28:05;;;;;;;9.40;8.60;;;19.30;1.00;;;;;;5208990;23;20507;-60
2021/08/20 11:30:34;;;;;;;7.93;7.23;;;19.70;99.90;;;;;;5000434;28;20488;-61
2021/08/20 11:33:16;;;;;;;7.07;6.33;;;20.10;1.00;;;;;;5000755;28;20503;-61
2021/08/20 11:35:47;;;;;;;4.73;4.33;;;20.60;99.90;;;;;;5000930;28;20510;-61
2021/08/20 11:38:26;;;;;;;4.73;4.33;;;21.20;1.00;;;;;;5000941;28;20940;-61
2021/08/20 11:40:54;;;;;;;5.40;4.90;;;21.40;1.00;;;;;;5001054;28;20562;-61
2021/08/20 11:43:23;;;;;;;4.40;4.10;;;21.40;1.00;;;;;;5000469;28;20465;-61
2021/08/20 11:45:58;;;;;;;3.60;3.40;;;21.40;1.00;;;;;;4992893;28;20827;-61
2021/08/20 11:48:25;;;;;;;5.13;3.33;;;21.80;1.00;;;;;;4999616;28;20492;-57
2021/08/20 11:50:52;;;;;;;3.27;2.97;;;21.80;1.00;;;;;;5000464;28;20811;-57
2021/08/20 11:53:24;;;;;;;3.10;2.90;;;22.00;1.00;;;;;;4999681;28;20496;-57
2021/08/20 11:55:52;;;;;;;3.50;3.30;;;22.50;1.00;;;;;;5000854;28;20548;-57
2021/08/20 11:58:30;;;;;;;3.80;2.90;;;22.30;1.00;;;;;;5000546;28;20522;-56
2021/08/20 12:00:57;;;;;;;2.70;2.50;;;21.90;1.00;;;;;;4997941;28;20492;-56
2021/08/20 12:03:26;;;;;;;3.90;3.47;;;21.40;1.00;;;;;;4993550;28;20500;-56
2021/08/20 12:06:06;;;;;;;3.67;3.20;;;21.30;1.00;;;;;;4985324;28;20445;-53
2021/08/20 12:47:30;;;;;;;3.37;3.10;;;26.10;1.00;;;;;;5008599;23;20948;-60
2021/08/20 12:50:04;;;;;;;3.40;3.10;;;25.80;1.00;;;;;;4998747;28;20902;-60
2021/08/20 12:52:31;;;;;;;3.17;2.93;;;25.30;99.90;;;;;;4990021;28;20532;-60
2021/08/20 12:54:58;;;;;;;4.20;3.13;;;25.60;1.00;;;;;;4996002;28;20486;-60
2021/08/20 12:57:25;;;;;;;2.90;2.70;;;25.90;99.90;;;;;;4992132;28;20468;-58
2021/08/20 13:00:02;;;;;;;2.43;2.23;;;26.20;99.90;;;;;;4993773;28;20887;-60
2021/08/20 13:02:33;;;;;;;2.77;2.43;;;26.50;99.90;;;;;;4993576;28;20465;-58
2021/08/20 13:05:06;;;;;;;2.80;2.60;;;26.60;99.90;;;;;;4998839;28;20508;-57
2021/08/20 13:07:33;;;;;;;3.03;2.83;;;25.90;99.90;;;;;;4998038;28;20469;-59
2021/08/20 13:10:00;;;;;;;3.03;2.83;;;25.20;99.90;;;;;;4997206;28;20508;-59
2021/08/20 13:12:27;;;;;;;3.23;3.03;;;24.90;99.90;;;;;;4998959;28;20532;-58
2021/08/20 13:14:54;;;;;;;3.00;2.70;;;24.40;99.90;;;;;;4998531;28;20552;-59
2021/08/20 13:17:21;;;;;;;3.77;3.40;;;24.20;99.90;;;;;;4998352;28;20497;-59
2021/08/20 13:19:50;;;;;;;4.20;3.10;;;23.80;99.90;;;;;;4997812;28;20568;-59
2021/08/20 13:22:17;;;;;;;3.20;2.90;;;23.70;1.00;;;;;;4999324;28;20809;-59
2021/08/20 13:24:47;;;;;;;3.67;3.20;;;23.50;1.00;;;;;;4998016;28;20500;-59
2021/08/20 13:27:14;;;;;;;3.83;3.07;;;23.30;1.00;;;;;;4996571;28;20508;-59
2021/08/20 13:29:44;;;;;;;3.53;2.73;;;23.20;1.00;;;;;;4997892;28;20777;-58
2021/08/20 13:32:12;;;;;;;3.40;3.20;;;22.90;1.00;;;;;;4996755;28;20496;-58
2021/08/20 13:34:39;;;;;;;3.27;3.03;;;22.60;1.00;;;;;;4996972;28;20497;-57
2021/08/20 13:37:07;;;;;;;3.50;3.20;;;22.40;1.00;;;;;;4998540;28;20519;-59
2021/08/20 13:39:35;;;;;;;2.80;2.60;;;22.20;1.00;;;;;;4998327;28;20871;-58
2021/08/20 13:42:02;;;;;;;3.40;3.20;;;22.10;1.00;;;;;;4997868;28;20468;-59
2021/08/20 13:44:29;;;;;;;3.63;3.43;;;22.10;1.00;;;;;;4984679;28;20473;-56
2021/08/20 13:46:57;;;;;;;3.63;3.40;;;22.20;1.00;;;;;;4995388;28;20501;-58
2021/08/20 13:49:24;;;;;;;3.67;3.37;;;22.10;1.00;;;;;;4998104;28;20465;-59
2021/08/20 13:51:51;;;;;;;5.40;3.60;;;22.10;1.00;;;;;;4997390;28;20543;-59
2021/08/20 13:54:19;;;;;;;3.60;3.30;;;22.00;1.00;;;;;;4998245;28;21046;-59
2021/08/20 13:56:48;;;;;;;4.20;2.90;;;22.00;1.00;;;;;;4996339;28;20457;-59
2021/08/20 13:59:23;;;;;;;3.53;3.23;;;22.00;1.00;;;;;;4998160;28;20500;-58
2021/08/20 14:01:53;;;;;;;2.93;2.73;;;22.00;1.00;;;;;;4998281;28;20503;-59
2021/08/20 14:04:20;;;;;;;3.20;2.90;;;22.30;1.00;;;;;;4998115;28;20453;-59
2021/08/20 14:06:47;;;;;;;4.53;3.77;;;22.50;1.00;;;;;;4997591;28;20461;-59
2021/08/20 14:09:14;;;;;;;3.43;3.13;;;22.70;1.00;;;;;;4997613;28;20503;-59
2021/08/20 14:11:42;;;;;;;3.77;3.53;;;22.90;1.00;;;;;;4998103;28;20495;-58
2021/08/20 14:14:09;;;;;;;3.63;3.30;;;23.20;1.00;;;;;;4997176;28;20566;-58
2021/08/20 14:16:36;;;;;;;3.93;3.63;;;23.40;1.00;;;;;;4978562;28;20493;-58
2021/08/20 14:19:03;;;;;;;4.30;3.70;;;23.20;1.00;;;;;;4997602;28;20469;-57
2021/08/20 14:21:34;;;;;;;3.50;3.30;;;22.90;1.00;;;;;;4997819;28;20825;-59
2021/08/20 14:24:07;;;;;;;4.37;3.97;;;22.80;1.00;;;;;;4997956;28;20467;-58
2021/08/20 14:26:36;;;;;;;3.67;3.37;;;22.90;1.00;;;;;;4997899;28;20464;-59
2021/08/20 14:29:07;;;;;;;5.07;3.90;;;23.00;1.00;;;;;;4997405;28;20468;-59
2021/08/20 14:31:38;;;;;;;2.83;2.63;;;23.30;1.00;;;;;;4997620;28;20471;-58
2021/08/20 14:34:08;;;;;;;3.33;3.03;;;23.70;1.00;;;;;;4997864;28;20564;-59
2021/08/20 14:36:36;;;;;;;4.10;3.80;;;23.80;1.00;;;;;;4995875;28;20504;-59
2021/08/20 14:39:04;;;;;;;4.17;3.00;;;23.90;1.00;;;;;;4997829;28;20900;-59